Latest Weather Observations for Broken Hill Airport

IDN60801

Issued at 7:03 pm EDT Sunday 7 February 2016 (issued every 30 minutes, with the page automatically refreshed every 10 minutes)

About weather observations | Map of weather stations | Latest weather observations for NSW | Other Formats
Station Details ID: 047048 Name: BROKEN HILL AIRPORT AWS Lat: -32.00 Lon: 141.47 Height: 281.3 m
Data from the previous 72 hours. | See also: Recent months at Broken Hill Airport
Date/Time
EDT
Temp
°C
App
Temp
°C
Dew
Point
Rel
Hum
%
Delta-T
°C
Wind Press
QNH
hPa
Press
MSL
hPa
Rain
since 9 am
mm
Dir
 
Spd
km/h
Gust
km/h
Spd
kts
Gust
kts
07/07:00pm 34.7 30.2 6.1 17 15.7 SSW 19 35 10 19 1013.5 1012.0 0.0
07/06:30pm 34.5 27.9 4.1 15 16.2 S 28 41 15 22 1013.5 1012.0 0.0
07/06:00pm 35.2 30.4 5.6 16 16.2 SE 20 33 11 18 1013.3 1011.7 0.0
07/05:30pm 36.2 31.0 5.5 15 16.9 S 22 41 12 22 1013.3 1011.7 0.0
07/05:00pm 35.1 29.9 5.5 16 16.2 S 22 50 12 27 1013.5 1012.0 0.0
07/04:53pm 34.9 29.1 4.4 15 16.4 S 24 50 13 27 1013.5 1012.0 0.0
07/04:30pm 34.9 30.4 4.4 15 16.4 S 17 32 9 17 1013.8 1012.3 0.0
07/04:00pm 34.3 28.2 3.0 14 16.4 SSE 24 41 13 22 1014.1 1012.6 0.0
07/03:30pm 34.5 28.8 3.1 14 16.4 SE 22 39 12 21 1014.4 1012.9 0.0
07/03:00pm 33.5 29.0 4.2 16 15.5 S 17 30 9 16 1014.7 1013.2 0.0
07/02:30pm 33.7 29.4 3.5 15 15.9 SSW 15 24 8 13 1015.1 1013.6 0.0
07/02:00pm 33.1 28.8 3.0 15 15.6 S 15 26 8 14 1015.5 1013.9 0.0
07/01:30pm 33.2 28.5 3.1 15 15.7 SSE 17 30 9 16 1015.8 1014.2 0.0
07/01:00pm 32.2 28.1 4.1 17 14.8 SW 15 28 8 15 1016.1 1014.5 0.0
07/12:30pm 31.3 26.7 6.4 21 13.5 SSE 20 35 11 19 1016.2 1014.6 0.0
07/12:00pm 31.3 27.1 8.3 24 12.9 SW 20 28 11 15 1016.5 1014.9 0.0
07/11:30am 30.9 27.4 8.6 25 12.5 SSW 17 26 9 14 1016.7 1015.2 0.0
07/11:00am 29.0 25.5 7.0 25 11.9 SW 15 24 8 13 1016.7 1015.2 0.0
07/10:30am 28.3 24.9 5.8 24 11.9 SW 13 19 7 10 1016.6 1015.1 0.0
07/10:00am 27.1 23.1 4.8 24 11.5 SSW 15 19 8 10 1016.6 1015.1 0.0
07/09:30am 26.4 22.3 4.2 24 11.3 SSW 15 20 8 11 1016.4 1014.8 0.0
07/09:00am 25.9 23.0 4.9 26 10.8 SSW 9 22 5 12 1016.1 1014.5 0.0
07/08:30am 25.2 22.9 5.9 29 10.0 N 7 13 4 7 1015.8 1014.2 0.0
07/08:00am 22.4 19.9 4.0 30 9.1 WNW 6 9 3 5 1015.3 1013.8 0.0
07/07:30am 20.7 18.8 3.0 31 8.5 WSW 2 6 1 3 1015.0 1013.5 0.0
07/07:00am 20.8 18.3 3.5 32 8.4 W 6 7 3 4 1014.7 1013.2 0.0
07/06:30am 21.6 18.6 4.2 32 8.6 WSW 9 11 5 6 1014.3 1012.8 0.0
07/06:00am 22.6 20.1 3.7 29 9.3 WNW 6 9 3 5 1014.1 1012.6 0.0
07/05:30am 23.5 19.6 3.4 27 9.9 ESE 13 17 7 9 1013.8 1012.3 0.0
07/05:00am 23.9 19.7 3.8 27 10.0 SE 15 19 8 10 1013.6 1012.1 0.0
07/04:30am 23.6 19.0 3.5 27 9.9 SE 17 20 9 11 1013.5 1012.0 0.0
07/04:00am 24.9 19.7 3.5 25 10.6 SE 20 26 11 14 1013.4 1011.9 0.0
07/03:30am 24.7 19.8 3.9 26 10.4 SE 19 24 10 13 1013.5 1012.0 0.0
07/03:00am 25.1 19.9 3.7 25 10.7 SE 20 26 11 14 1013.7 1012.2 0.0
07/02:30am 24.7 19.7 3.4 25 10.6 SE 19 20 10 11 1013.8 1012.3 0.0
07/02:00am 25.0 20.3 3.0 24 10.8 SE 17 19 9 10 1013.8 1012.3 0.0
07/01:30am 25.8 21.0 2.5 22 11.4 SE 17 20 9 11 1013.9 1012.4 0.0
07/01:00am 24.9 20.7 1.7 22 11.2 SE 13 15 7 8 1014.1 1012.6 0.0
07/12:30am 25.9 21.4 1.9 21 11.7 SE 15 17 8 9 1014.1 1012.6 0.0
07/12:00am 26.4 21.8 1.7 20 12.0 SE 15 19 8 10 1014.2 1012.7 0.0
 
Date/Time
EDT
Temp
°C
App
Temp
°C
Dew
Point
Rel
Hum
%
Delta-T
°C
Wind Press
QNH
hPa
Press
MSL
hPa
Rain
since 9 am
mm
Dir
 
Spd
km/h
Gust
km/h
Spd
kts
Gust
kts
06/11:30pm 26.9 22.3 1.3 19 12.4 SE 15 19 8 10 1014.2 1012.7 0.0
06/11:00pm 27.5 22.7 2.6 20 12.4 SE 17 20 9 11 1013.8 1012.3 0.0
06/10:30pm 27.6 23.8 4.0 22 12.0 SE 13 19 7 10 1013.6 1012.1 0.0
06/10:00pm 28.3 24.6 4.6 22 12.3 SE 13 17 7 9 1013.2 1011.6 0.0
06/09:30pm 29.4 25.0 4.8 21 12.9 SE 17 20 9 11 1012.8 1011.2 0.0
06/09:00pm 30.1 25.3 4.7 20 13.3 SE 19 24 10 13 1012.5 1010.9 0.0
06/08:30pm 30.7 26.4 5.2 20 13.5 SE 17 20 9 11 1012.1 1010.5 0.0
06/08:00pm 31.7 26.8 5.3 19 14.1 SE 20 32 11 17 1011.6 1010.1 0.0
06/07:30pm 32.6 28.1 6.0 19 14.5 SE 19 30 10 16 1011.1 1009.6 0.0
06/07:00pm 32.7 28.0 5.3 18 14.7 SE 19 32 10 17 1010.9 1009.4 0.0
06/06:30pm 32.7 27.7 4.5 17 15.0 S 20 33 11 18 1010.6 1009.1 0.0
06/06:00pm 32.8 27.8 4.6 17 15.0 S 20 33 11 18 1010.3 1008.8 0.0
06/05:30pm 33.0 27.3 4.7 17 15.1 SE 24 33 13 18 1010.5 1009.0 0.0
06/05:00pm 33.2 28.4 4.9 17 15.2 SE 19 30 10 16 1010.7 1009.2 0.0
06/04:30pm 34.0 29.4 5.5 17 15.5 S 19 33 10 18 1011.1 1009.6 0.0
06/04:00pm 33.2 27.9 4.9 17 15.2 SSE 22 35 12 19 1011.4 1009.9 0.0
06/03:30pm 33.0 28.4 6.3 19 14.6 ESE 20 32 11 17 1011.6 1010.1 0.0
06/03:00pm 31.7 26.6 6.0 20 13.9 SE 22 37 12 20 1012.2 1010.6 0.0
06/02:30pm 32.0 28.9 5.5 19 14.2 S 11 24 6 13 1012.5 1010.9 0.0
06/02:00pm 31.9 27.2 6.2 20 14.0 SE 20 32 11 17 1012.8 1011.2 0.0
06/01:30pm 31.4 27.5 7.1 22 13.4 S 17 32 9 17 1013.2 1011.6 0.0
06/01:00pm 31.1 26.6 6.9 22 13.2 SE 20 33 11 18 1013.4 1011.9 0.0
06/12:30pm 30.6 27.3 6.5 22 13.1 SSE 13 24 7 13 1013.7 1012.2 0.0
06/12:00pm 29.9 26.4 7.2 24 12.4 E 15 28 8 15 1014.1 1012.6 0.0
06/11:30am 30.0 26.3 10.0 29 11.4 ENE 20 28 11 15 1014.2 1012.7 0.0
06/11:00am 28.6 24.7 9.3 30 10.8 ENE 20 26 11 14 1014.4 1012.9 0.0
06/10:30am 27.3 22.7 9.6 33 9.9 ENE 24 32 13 17 1014.2 1012.7 0.0
06/10:00am 26.6 21.7 9.9 35 9.4 ENE 26 32 14 17 1014.2 1012.7 0.0
06/09:30am 26.0 21.0 9.4 35 9.2 E 26 33 14 18 1014.1 1012.6 0.0
06/09:00am 25.3 20.4 8.3 34 9.2 E 24 32 13 17 1014.0 1012.5 0.0
06/08:30am 23.7 19.0 7.8 36 8.5 E 22 28 12 15 1013.7 1012.2 0.0
06/08:00am 22.4 18.2 7.4 38 7.9 E 19 24 10 13 1013.6 1012.1 0.0
06/07:30am 21.2 18.1 7.4 41 7.2 ESE 13 19 7 10 1013.1 1011.5 0.0
06/07:00am 20.1 18.3 7.1 43 6.7 WNW 6 9 3 5 1012.7 1011.1 0.0
06/06:30am 20.7 18.7 7.0 41 7.1 SSE 7 11 4 6 1012.3 1010.7 0.0
06/06:00am 21.2 16.8 6.7 39 7.5 SE 19 26 10 14 1012.1 1010.5 0.0
06/05:30am 21.5 16.9 6.6 38 7.7 SE 20 26 11 14 1011.8 1010.2 0.0
06/05:00am 21.8 17.1 6.1 36 8.0 SE 20 24 11 13 1011.6 1010.1 0.0
06/04:30am 21.9 17.3 5.8 35 8.2 SE 19 24 10 13 1011.6 1010.1 0.0
06/04:00am 22.2 17.3 5.2 33 8.6 SE 20 26 11 14 1011.8 1010.2 0.0
06/03:30am 22.7 17.7 4.7 31 9.0 SE 20 26 11 14 1012.0 1010.4 0.0
06/03:00am 22.7 17.6 4.2 30 9.2 SE 20 26 11 14 1012.2 1010.6 0.0
06/02:30am 23.1 17.9 3.6 28 9.6 SE 20 26 11 14 1012.4 1010.8 0.0
06/02:00am 23.5 18.3 3.4 27 9.9 SE 20 26 11 14 1012.6 1011.0 0.0
06/01:30am 23.9 18.6 3.2 26 10.2 SE 20 26 11 14 1012.7 1011.1 0.0
06/01:00am 24.6 19.4 3.3 25 10.5 SE 20 28 11 15 1012.8 1011.2 0.0
06/12:30am 25.3 19.7 3.3 24 10.9 SE 22 26 12 14 1012.8 1011.2 0.0
06/12:00am 25.4 20.3 2.8 23 11.1 SE 19 24 10 13 1012.9 1011.3 0.0
 
Date/Time
EDT
Temp
°C
App
Temp
°C
Dew
Point
Rel
Hum
%
Delta-T
°C
Wind Press
QNH
hPa
Press
MSL
hPa
Rain
since 9 am
mm
Dir
 
Spd
km/h
Gust
km/h
Spd
kts
Gust
kts
05/11:30pm 26.2 20.9 2.8 22 11.6 SE 20 26 11 14 1013.0 1011.4 0.0
05/11:00pm 26.6 21.2 2.5 21 11.9 SE 20 24 11 13 1013.0 1011.4 0.0
05/10:30pm 27.3 21.8 1.7 19 12.5 SE 20 26 11 14 1012.8 1011.2 0.0
05/10:00pm 27.9 22.3 1.4 18 13.0 SE 20 24 11 13 1012.6 1011.0 0.0
05/09:30pm 28.5 22.5 1.1 17 13.4 SE 22 28 12 15 1012.4 1010.8 0.0
05/09:00pm 29.2 23.3 1.7 17 13.6 SE 22 30 12 16 1012.1 1010.5 0.0
05/08:30pm 30.1 22.6 1.5 16 14.2 SE 30 39 16 21 1011.6 1010.1 0.0
05/08:00pm 30.9 22.9 0.3 14 15.0 SE 32 41 17 22 1011.2 1009.7 0.0
05/07:30pm 31.4 23.4 0.7 14 15.2 SE 32 43 17 23 1010.8 1009.3 0.0
05/07:00pm 31.9 24.0 1.1 14 15.4 SE 32 50 17 27 1010.6 1009.1 0.0
05/06:54pm 32.7 25.7 1.7 14 15.7 SE 28 46 15 25 1010.5 1009.0 0.0
05/06:30pm 32.4 24.4 1.5 14 15.6 SE 33 44 18 24 1010.5 1009.0 0.0
05/06:00pm 32.5 24.5 0.6 13 15.9 SE 32 44 17 24 1010.6 1009.1 0.0
05/05:43pm 32.7 25.1 0.7 13 15.9 SE 30 48 16 26 1010.6 1009.1 0.0
05/05:30pm 33.0 24.5 0.9 13 16.1 SE 35 48 19 26 1010.7 1009.2 0.0
05/05:14pm 33.1 25.0 1.0 13 16.1 SE 33 54 18 29 1010.8 1009.3 0.0
05/05:00pm 32.8 24.9 0.8 13 16.0 SE 32 44 17 24 1010.9 1009.4 0.0
05/04:36pm 34.2 25.9 1.9 13 16.6 SE 35 54 19 29 1011.1 1009.6 0.0
05/04:34pm 33.0 24.1 0.9 13 16.1 SE 37 54 20 29 1011.0 1009.5 0.0
05/04:30pm 33.1 23.9 1.0 13 16.1 SE 39 54 21 29 1011.0 1009.5 0.0
05/04:23pm 33.4 24.6 1.3 13 16.2 SE 37 54 20 29 1011.3 1009.8 0.0
05/04:20pm 33.6 25.2 1.4 13 16.3 SE 35 48 19 26 1011.1 1009.6 0.0
05/04:00pm 33.5 25.4 1.3 13 16.3 SE 33 48 18 26 1011.4 1009.9 0.0
05/03:47pm 32.6 24.1 0.6 13 15.9 SE 35 56 19 30 1011.4 1009.9 0.0
05/03:30pm 32.9 24.8 0.9 13 16.0 SE 33 44 18 24 1011.8 1010.2 0.0
05/03:26pm 33.1 24.2 1.0 13 16.1 SE 37 56 20 30 1011.8 1010.2 0.0
05/03:00pm 33.0 23.7 0.9 13 16.1 SE 39 54 21 29 1012.1 1010.5 0.0
05/02:42pm 32.0 23.5 3.1 16 14.9 SE 37 56 20 30 1012.4 1010.8 0.0
05/02:34pm 32.3 24.0 4.2 17 14.8 SE 37 57 20 31 1012.3 1010.7 0.0
05/02:30pm 32.9 24.0 2.9 15 15.5 SE 39 57 21 31 1012.4 1010.8 0.0
05/02:00pm 32.4 25.0 4.2 17 14.9 SE 32 50 17 27 1012.8 1011.2 0.0
05/01:33pm 31.6 24.0 5.9 20 13.9 SE 35 63 19 34 1013.2 1011.6 0.0
05/01:30pm 31.8 24.3 6.1 20 13.9 SE 35 44 19 24 1013.2 1011.6 0.0
05/01:00pm 30.4 22.7 7.0 23 12.8 SE 37 57 20 31 1013.8 1012.3 0.0
05/12:44pm 30.5 23.6 8.8 26 12.2 SE 35 54 19 29 1013.8 1012.3 0.0
05/12:30pm 29.8 22.7 8.2 26 12.0 SE 35 48 19 26 1014.1 1012.6 0.0
05/12:00pm 29.0 23.0 10.2 31 10.7 SE 32 44 17 24 1014.5 1013.0 0.0
05/11:30am 27.8 23.1 10.5 34 9.9 SE 26 39 14 21 1014.6 1013.1 0.0
05/11:00am 26.2 21.2 10.8 38 8.8 SE 28 43 15 23 1014.7 1013.2 0.0
05/10:30am 25.6 20.3 11.4 41 8.1 SE 30 37 16 20 1014.7 1013.2 0.0
05/10:00am 24.3 18.6 11.3 44 7.4 SSE 32 41 17 22 1014.7 1013.2 0.0
05/09:30am 23.5 18.1 10.9 45 7.1 SE 30 37 16 20 1014.6 1013.1 0.0
05/09:00am 21.7 15.7 10.2 48 6.3 SSE 32 41 17 22 1014.4 1012.9 0.0
05/08:30am 20.8 14.7 9.7 49 6.0 SSE 32 37 17 20 1014.1 1012.6 0.0
05/08:00am 20.1 14.2 9.1 49 5.9 SSE 30 35 16 19 1013.8 1012.3 0.0
05/07:30am 19.3 14.0 8.6 50 5.6 SSE 26 32 14 17 1013.3 1011.7 0.0
05/07:00am 19.2 13.8 8.2 49 5.8 SSE 26 32 14 17 1013.0 1011.4 0.0
05/06:30am 19.4 14.7 7.8 47 6.0 SSE 22 28 12 15 1012.8 1011.2 0.0
05/06:00am 19.7 14.9 7.4 45 6.4 S 22 30 12 16 1012.6 1011.0 0.0
05/05:30am 19.2 14.8 6.7 44 6.4 S 19 24 10 13 1012.6 1011.0 0.0
05/05:00am 19.1 14.6 6.2 43 6.5 SW 19 20 10 11 1012.4 1010.8 0.0
05/04:30am 19.0 15.5 5.5 41 6.7 SW 13 15 7 8 1012.4 1010.8 0.0
05/04:00am 21.0 16.5 6.2 38 7.5 S 19 24 10 13 1012.4 1010.8 0.0
05/03:30am 21.5 16.7 5.8 36 8.0 S 20 26 11 14 1012.5 1010.9 0.0
05/03:00am 21.3 16.5 4.8 34 8.2 S 19 24 10 13 1012.6 1011.0 0.0
05/02:30am 21.4 16.6 4.5 33 8.4 S 19 20 10 11 1012.6 1011.0 0.0
05/02:00am 21.5 17.4 4.1 32 8.6 S 15 20 8 11 1012.8 1011.2 0.0
05/01:30am 22.0 17.9 4.1 31 8.8 S 15 19 8 10 1013.1 1011.5 0.0
05/01:00am 22.6 18.1 4.2 30 9.1 S 17 19 9 10 1013.2 1011.6 0.0
05/12:30am 22.7 18.5 3.8 29 9.3 S 15 20 8 11 1013.3 1011.7 0.0
05/12:00am 23.4 18.3 3.9 28 9.7 S 20 24 11 13 1013.2 1011.6 0.0
 
Date/Time
EDT
Temp
°C
App
Temp
°C
Dew
Point
Rel
Hum
%
Delta-T
°C
Wind Press
QNH
hPa
Press
MSL
hPa
Rain
since 9 am
mm
Dir
 
Spd
km/h
Gust
km/h
Spd
kts
Gust
kts
04/11:30pm 24.2 18.3 4.0 27 10.1 S 24 30 13 16 1013.3 1011.7 0.0
04/11:00pm 24.7 18.4 3.9 26 10.4 S 26 32 14 17 1013.2 1011.6 0.0
04/10:30pm 25.2 18.8 3.2 24 10.9 S 26 33 14 18 1013.3 1011.7 0.0
04/10:00pm 25.4 18.9 2.8 23 11.1 S 26 33 14 18 1013.2 1011.6 0.0
04/09:30pm 25.9 18.7 3.2 23 11.3 S 30 37 16 20 1013.1 1011.5 0.0
04/09:00pm 26.3 19.7 4.1 24 11.3 SSE 28 41 15 22 1013.0 1011.4 0.0
04/08:30pm 26.8 19.4 5.1 25 11.2 SSE 33 46 18 25 1012.7 1011.1 0.0
04/08:00pm 27.4 19.0 5.6 25 11.4 S 39 50 21 27 1012.4 1010.8 0.0

Other Formats:

Comma delimited format used in spreadsheet applications
http://www.bom.gov.au/fwo/IDN60801/IDN60801.94691.axf

JavaScript Object Notation format (JSON) in row-major order
http://www.bom.gov.au/fwo/IDN60801/IDN60801.94691.json